createdAt,value
2016-08-20T00:00:22.537Z,953.22
2016-08-20T00:01:31.738Z,953.23
2016-08-20T00:02:17.884Z,953.27
2016-08-20T00:03:17.722Z,953.27
2016-08-20T00:04:26.144Z,953.22
2016-08-20T00:05:23.335Z,953.17
2016-08-20T00:06:33.839Z,953.19
2016-08-20T00:07:34.256Z,953.19
2016-08-20T00:08:33.866Z,953.14
2016-08-20T00:09:17.536Z,953.17
2016-08-20T00:10:32.375Z,953.18
2016-08-20T00:11:25.601Z,953.15
2016-08-20T00:12:31.819Z,953.16
2016-08-20T00:13:26.479Z,953.11
2016-08-20T00:14:29.095Z,953.16
2016-08-20T00:15:31.377Z,953.11
2016-08-20T00:16:29.442Z,953.14
2016-08-20T00:17:33.872Z,953.09
2016-08-20T00:18:32.061Z,953.08
2016-08-20T00:19:18.615Z,953.07
2016-08-20T00:20:28.376Z,953.11
2016-08-20T00:21:23.595Z,953.10
2016-08-20T00:22:32.370Z,953.15
2016-08-20T00:23:34.600Z,953.15
2016-08-20T00:24:31.766Z,953.11
2016-08-20T00:25:22.965Z,953.12
2016-08-20T00:26:22.974Z,953.10
2016-08-20T00:27:22.713Z,953.18
2016-08-20T00:28:22.915Z,953.13
2016-08-20T00:29:29.044Z,953.13
2016-08-20T00:30:32.246Z,953.16
2016-08-20T00:31:27.935Z,953.14
2016-08-20T00:32:36.708Z,953.16
2016-08-20T00:33:31.923Z,953.15
2016-08-20T00:34:37.324Z,953.17
2016-08-20T00:35:33.082Z,953.13
2016-08-20T00:36:32.293Z,953.13
2016-08-20T00:37:33.659Z,953.12
2016-08-20T00:38:24.670Z,953.15
2016-08-20T00:39:36.414Z,953.18
2016-08-20T00:40:35.205Z,953.15
2016-08-20T00:41:17.337Z,953.18
2016-08-20T00:42:22.557Z,953.19
2016-08-20T00:43:31.773Z,953.17
2016-08-20T00:44:21.897Z,953.21
2016-08-20T00:45:36.645Z,953.23
2016-08-20T00:46:36.748Z,953.23
2016-08-20T00:47:26.436Z,953.28
2016-08-20T00:48:32.563Z,953.29
2016-08-20T00:49:17.246Z,953.29
2016-08-20T00:50:33.678Z,953.33
2016-08-20T00:51:29.139Z,953.31
2016-08-20T00:53:36.769Z,953.29
2016-08-20T00:54:17.961Z,953.26
2016-08-20T00:55:32.243Z,953.30
2016-08-20T00:56:28.045Z,953.31
2016-08-20T00:57:25.700Z,953.38
2016-08-20T00:58:22.764Z,953.37
2016-08-20T00:59:22.553Z,953.35
2016-08-20T01:00:31.857Z,953.39
2016-08-20T01:01:28.545Z,953.41
2016-08-20T01:02:31.717Z,953.43
2016-08-20T01:03:17.975Z,953.40
2016-08-20T01:04:37.186Z,953.43
2016-08-20T01:05:31.893Z,953.49
2016-08-20T01:06:36.627Z,953.47
2016-08-20T01:07:18.696Z,953.44
2016-08-20T01:08:36.578Z,953.49
2016-08-20T01:10:31.868Z,953.44
2016-08-20T01:11:31.715Z,953.45
2016-08-20T01:12:18.274Z,953.48
2016-08-20T01:13:36.055Z,953.50
2016-08-20T01:14:34.729Z,953.54
2016-08-20T01:15:32.315Z,953.52
2016-08-20T01:16:29.908Z,953.54
2016-08-20T01:17:28.732Z,953.55
2016-08-20T01:18:36.468Z,953.54
2016-08-20T01:19:18.109Z,953.51
2016-08-20T01:20:19.615Z,953.48
2016-08-20T01:23:22.950Z,953.49
2016-08-20T01:24:38.363Z,953.55
2016-08-20T01:25:31.542Z,953.55
2016-08-20T01:26:31.646Z,953.54
2016-08-20T01:27:33.857Z,953.56
2016-08-20T01:28:29.050Z,953.58
2016-08-20T01:29:29.691Z,953.58
2016-08-20T01:31:31.504Z,953.63
2016-08-20T01:32:36.306Z,953.66
2016-08-20T01:33:31.978Z,953.66
2016-08-20T01:34:24.154Z,953.63
2016-08-20T01:35:32.382Z,953.65
2016-08-20T01:36:22.583Z,953.67
2016-08-20T01:37:32.285Z,953.68
2016-08-20T01:38:22.539Z,953.70
2016-08-20T01:39:22.697Z,953.73
2016-08-20T01:40:30.800Z,953.73
2016-08-20T01:41:40.461Z,953.71
2016-08-20T01:42:31.897Z,953.71
2016-08-20T01:43:33.759Z,953.70
2016-08-20T01:44:22.327Z,953.74
2016-08-20T01:45:17.519Z,953.78
2016-08-20T01:46:36.136Z,953.80
2016-08-20T01:47:18.324Z,953.80
2016-08-20T01:48:30.111Z,953.83
2016-08-20T01:49:18.394Z,953.80
2016-08-20T01:50:17.685Z,953.83
2016-08-20T01:51:36.515Z,953.81
2016-08-20T01:52:17.666Z,953.80
2016-08-20T01:53:22.853Z,953.77
2016-08-20T01:54:18.358Z,953.79
2016-08-20T01:55:18.033Z,953.84
2016-08-20T01:56:36.785Z,953.91
2016-08-20T01:57:22.503Z,953.88
2016-08-20T01:58:22.702Z,953.91
2016-08-20T01:59:32.965Z,953.86
2016-08-20T02:00:18.106Z,953.89
2016-08-20T02:01:18.343Z,953.83
2016-08-20T02:02:12.449Z,953.81
2016-08-20T02:03:32.076Z,953.79
2016-08-20T02:04:28.771Z,953.81
2016-08-20T02:05:22.973Z,953.82
2016-08-20T02:06:18.027Z,953.82
2016-08-20T02:07:28.735Z,953.76
2016-08-20T02:08:22.929Z,953.75
2016-08-20T02:09:36.736Z,953.76
2016-08-20T02:10:34.233Z,953.74
2016-08-20T02:11:31.610Z,953.72
2016-08-20T02:12:31.435Z,953.69
2016-08-20T02:13:18.425Z,953.72
2016-08-20T02:14:22.645Z,953.69
2016-08-20T02:15:32.816Z,953.67
2016-08-20T02:16:36.568Z,953.63
2016-08-20T02:17:36.428Z,953.59
2016-08-20T02:18:19.633Z,953.57
2016-08-20T02:19:31.854Z,953.52
2016-08-20T02:20:23.029Z,953.51
2016-08-20T02:21:18.372Z,953.49
2016-08-20T02:22:30.559Z,953.44
2016-08-20T02:23:22.787Z,953.42
2016-08-20T02:24:34.131Z,953.43
2016-08-20T02:25:32.376Z,953.43
2016-08-20T02:26:31.526Z,953.48
2016-08-20T02:27:17.713Z,953.49
2016-08-20T02:28:32.458Z,953.55
2016-08-20T02:29:12.521Z,953.56
2016-08-20T02:30:32.005Z,953.58
2016-08-20T02:31:18.493Z,953.59
2016-08-20T02:32:36.264Z,953.58
2016-08-20T02:33:14.207Z,953.60
2016-08-20T02:34:22.969Z,953.64
2016-08-20T02:35:33.830Z,953.64
2016-08-20T02:36:36.687Z,953.67
2016-08-20T02:37:18.724Z,953.68
2016-08-20T02:38:18.453Z,953.71
2016-08-20T02:39:17.699Z,953.76
2016-08-20T02:40:31.882Z,953.73
2016-08-20T02:41:34.093Z,953.78
2016-08-20T02:42:18.715Z,953.75
2016-08-20T02:43:34.847Z,953.74
2016-08-20T02:44:32.096Z,953.73
2016-08-20T02:45:24.978Z,953.72
2016-08-20T02:46:18.242Z,953.72
2016-08-20T02:47:32.280Z,953.72
2016-08-20T02:48:31.459Z,953.74
2016-08-20T02:49:23.053Z,953.74
2016-08-20T02:50:26.705Z,953.75
2016-08-20T02:51:32.476Z,953.76
2016-08-20T02:52:12.956Z,953.72
2016-08-20T02:53:33.923Z,953.76
2016-08-20T02:54:32.110Z,953.75
2016-08-20T02:55:24.201Z,953.79
2016-08-20T02:56:31.429Z,953.76
2016-08-20T02:57:28.906Z,953.72
2016-08-20T02:58:34.748Z,953.70
2016-08-20T02:59:28.472Z,953.66
2016-08-20T03:00:18.505Z,953.69
2016-08-20T03:01:30.839Z,953.60
2016-08-20T03:02:33.021Z,953.59
2016-08-20T03:03:23.244Z,953.62
2016-08-20T03:04:30.315Z,953.58
2016-08-20T03:05:22.574Z,953.63
2016-08-20T03:06:23.121Z,953.60
2016-08-20T03:07:33.339Z,953.64
2016-08-20T03:08:25.995Z,953.64
2016-08-20T03:09:18.132Z,953.67
2016-08-20T03:10:31.734Z,953.66
2016-08-20T03:11:32.213Z,953.70
2016-08-20T03:12:34.229Z,953.64
2016-08-20T03:14:28.460Z,953.61
2016-08-20T03:15:31.625Z,953.62
2016-08-20T03:16:36.356Z,953.60
2016-08-20T03:17:24.508Z,953.60
2016-08-20T03:19:37.094Z,953.61
2016-08-20T03:20:23.324Z,953.60
2016-08-20T03:21:29.768Z,953.61
2016-08-20T03:22:24.276Z,953.60
2016-08-20T03:23:31.479Z,953.56
2016-08-20T03:24:22.654Z,953.56
2016-08-20T03:25:24.721Z,953.55
2016-08-20T03:26:31.895Z,953.55
2016-08-20T03:27:36.645Z,953.55
2016-08-20T03:28:34.237Z,953.58
2016-08-20T03:29:27.968Z,953.58
2016-08-20T03:30:33.179Z,953.57
2016-08-20T03:31:23.408Z,953.54
2016-08-20T03:32:29.834Z,953.58
2016-08-20T03:33:32.029Z,953.56
2016-08-20T03:34:34.429Z,953.57
2016-08-20T03:35:30.729Z,953.54
2016-08-20T03:36:36.833Z,953.59
2016-08-20T03:37:34.240Z,953.57
2016-08-20T03:38:22.736Z,953.64
2016-08-20T03:39:28.697Z,953.63
2016-08-20T03:40:36.354Z,953.65
2016-08-20T03:41:28.299Z,953.67
2016-08-20T03:42:36.016Z,953.68
2016-08-20T03:43:30.376Z,953.68
2016-08-20T03:44:23.723Z,953.72
2016-08-20T03:45:28.678Z,953.71
2016-08-20T03:46:18.997Z,953.73
2016-08-20T03:47:23.504Z,953.70
2016-08-20T03:48:34.915Z,953.75
2016-08-20T03:49:19.309Z,953.76
2016-08-20T03:50:28.487Z,953.78
2016-08-20T03:51:40.332Z,953.79
2016-08-20T03:52:32.278Z,953.81
2016-08-20T03:53:34.245Z,953.79
2016-08-20T03:54:22.767Z,953.83
2016-08-20T03:55:36.618Z,953.87
2016-08-20T03:56:28.314Z,953.87
2016-08-20T03:57:23.818Z,953.87
2016-08-20T03:58:36.607Z,953.87
2016-08-20T03:59:35.174Z,953.89
2016-08-20T04:00:26.836Z,953.90
2016-08-20T04:01:34.133Z,953.92
2016-08-20T04:02:34.549Z,953.91
2016-08-20T04:03:35.243Z,953.93
2016-08-20T04:04:35.237Z,953.94
2016-08-20T04:05:30.124Z,953.93
2016-08-20T04:06:31.232Z,953.90
2016-08-20T04:07:31.874Z,953.93
2016-08-20T04:08:32.003Z,953.93
2016-08-20T04:09:29.640Z,953.92
2016-08-20T04:10:33.817Z,953.94
2016-08-20T04:11:42.811Z,953.93
2016-08-20T04:12:31.959Z,953.96
2016-08-20T04:13:23.469Z,953.91
2016-08-20T04:14:23.524Z,953.95
2016-08-20T04:15:26.784Z,953.95
2016-08-20T04:16:17.925Z,953.89
2016-08-20T04:17:31.589Z,953.89
2016-08-20T04:18:36.353Z,953.92
2016-08-20T04:19:18.525Z,953.94
2016-08-20T04:20:22.625Z,953.95
2016-08-20T04:21:28.788Z,953.94
2016-08-20T04:22:17.667Z,953.93
2016-08-20T04:23:32.881Z,953.98
2016-08-20T04:24:18.383Z,953.99
2016-08-20T04:26:32.978Z,953.96
2016-08-20T04:27:32.158Z,954.04
2016-08-20T04:28:29.137Z,954.00
2016-08-20T04:29:33.399Z,954.09
2016-08-20T04:30:31.578Z,954.05
2016-08-20T04:31:35.972Z,954.06
2016-08-20T04:32:34.505Z,954.04
2016-08-20T04:33:31.709Z,954.06
2016-08-20T04:34:18.624Z,954.07
2016-08-20T04:35:23.158Z,954.05
2016-08-20T04:36:18.654Z,954.07
2016-08-20T04:37:31.894Z,954.08
2016-08-20T04:38:35.278Z,954.10
2016-08-20T04:39:31.431Z,954.07
2016-08-20T04:40:18.725Z,954.06
2016-08-20T04:41:18.776Z,954.08
2016-08-20T04:42:17.970Z,954.11
2016-08-20T04:43:36.586Z,954.08
2016-08-20T04:44:22.648Z,954.09
2016-08-20T04:45:24.161Z,954.06
2016-08-20T04:46:18.563Z,954.09
2016-08-20T04:47:33.923Z,954.05
2016-08-20T04:48:18.563Z,954.08
2016-08-20T04:49:12.436Z,954.05
2016-08-20T04:50:18.266Z,954.03
2016-08-20T04:51:36.243Z,954.04
2016-08-20T04:52:17.541Z,954.04
2016-08-20T04:53:33.958Z,954.05
2016-08-20T04:55:18.545Z,954.07
2016-08-20T04:56:31.783Z,954.07
2016-08-20T04:57:18.166Z,954.16
2016-08-20T04:58:24.347Z,954.16
2016-08-20T04:59:23.468Z,954.19
2016-08-20T05:00:28.232Z,954.14
2016-08-20T05:02:36.877Z,954.13
2016-08-20T05:05:19.317Z,954.17
2016-08-20T05:07:31.687Z,954.16
2016-08-20T05:08:26.070Z,954.23
2016-08-20T05:09:32.193Z,954.23
2016-08-20T05:10:36.923Z,954.23
2016-08-20T05:11:32.082Z,954.21
2016-08-20T05:12:32.296Z,954.19
2016-08-20T05:14:23.368Z,954.25
2016-08-20T05:15:31.250Z,954.22
2016-08-20T05:17:36.838Z,954.19
2016-08-20T05:18:32.001Z,954.20
2016-08-20T05:20:30.215Z,954.24
2016-08-20T05:21:19.727Z,954.23
2016-08-20T05:22:17.885Z,954.24
2016-08-20T05:24:33.635Z,954.23
2016-08-20T05:26:31.495Z,954.21
2016-08-20T05:27:31.706Z,954.19
2016-08-20T05:28:31.937Z,954.22
2016-08-20T05:29:17.700Z,954.20
2016-08-20T05:30:31.752Z,954.18
2016-08-20T05:31:36.616Z,954.19
2016-08-20T05:32:36.064Z,954.22
2016-08-20T05:33:37.362Z,954.18
2016-08-20T05:34:31.570Z,954.23
2016-08-20T05:35:34.078Z,954.24
2016-08-20T05:36:36.235Z,954.22
2016-08-20T05:41:31.948Z,954.27
2016-08-20T05:42:12.887Z,954.27
2016-08-20T05:44:28.970Z,954.28
2016-08-20T05:46:31.322Z,954.19
2016-08-20T05:47:17.757Z,954.22
2016-08-20T05:48:28.989Z,954.20
2016-08-20T05:49:18.654Z,954.18
2016-08-20T05:50:18.116Z,954.23
2016-08-20T05:51:29.129Z,954.18
2016-08-20T05:52:37.437Z,954.14
2016-08-20T05:53:17.912Z,954.14
2016-08-20T05:54:26.161Z,954.14
2016-08-20T05:55:18.505Z,954.14
2016-08-20T05:56:22.700Z,954.12
2016-08-20T05:58:31.254Z,954.16
2016-08-20T05:59:22.986Z,954.23
2016-08-20T06:00:26.656Z,954.20
2016-08-20T06:02:31.435Z,954.22
2016-08-20T06:03:26.099Z,954.23
2016-08-20T06:04:28.654Z,954.24
2016-08-20T06:05:32.407Z,954.26
2016-08-20T06:06:32.304Z,954.20
2016-08-20T06:07:31.596Z,954.23
2016-08-20T06:08:20.252Z,954.21
2016-08-20T06:09:11.983Z,954.22
2016-08-20T06:11:31.796Z,954.25
2016-08-20T06:12:31.481Z,954.23
2016-08-20T06:13:34.198Z,954.23
2016-08-20T06:14:30.235Z,954.25
2016-08-20T06:16:32.013Z,954.25
2016-08-20T06:17:13.537Z,954.25
2016-08-20T06:18:28.396Z,954.30
2016-08-20T06:19:32.653Z,954.30
2016-08-20T06:20:31.817Z,954.28
2016-08-20T06:21:31.998Z,954.28
2016-08-20T06:24:22.399Z,954.27
2016-08-20T06:25:28.117Z,954.26
2016-08-20T06:26:19.404Z,954.25
2016-08-20T06:27:36.207Z,954.31
2016-08-20T06:28:32.777Z,954.28
2016-08-20T06:29:29.386Z,954.26
2016-08-20T06:30:18.676Z,954.26
2016-08-20T06:31:17.622Z,954.27
2016-08-20T06:32:32.280Z,954.25
2016-08-20T06:33:17.779Z,954.26
2016-08-20T06:34:33.956Z,954.24
2016-08-20T06:36:32.598Z,954.22
2016-08-20T06:39:18.343Z,954.27
2016-08-20T06:40:35.682Z,954.26
2016-08-20T06:41:33.585Z,954.22
2016-08-20T06:42:18.167Z,954.25
2016-08-20T06:43:27.990Z,954.28
2016-08-20T06:44:23.546Z,954.24
2016-08-20T06:45:30.360Z,954.27
2016-08-20T06:46:35.832Z,954.26
2016-08-20T06:47:32.838Z,954.18
2016-08-20T06:48:32.031Z,954.17
2016-08-20T06:49:19.469Z,954.17
2016-08-20T06:50:32.687Z,954.13
2016-08-20T06:52:27.308Z,954.11
2016-08-20T06:53:27.900Z,954.11
2016-08-20T06:55:18.227Z,954.08
2016-08-20T06:56:39.167Z,954.10
2016-08-20T06:57:32.556Z,954.08
2016-08-20T06:58:19.767Z,954.04
2016-08-20T06:59:28.950Z,954.02
2016-08-20T07:00:19.224Z,954.02
2016-08-20T07:01:31.456Z,954.00
2016-08-20T07:04:31.892Z,954.02
2016-08-20T07:06:32.724Z,954.01
2016-08-20T07:08:31.684Z,954.03
2016-08-20T07:09:31.835Z,954.02
2016-08-20T07:10:31.098Z,954.03
2016-08-20T07:11:23.125Z,954.02
2016-08-20T07:12:31.575Z,954.04
2016-08-20T07:14:22.438Z,954.11
2016-08-20T07:16:25.679Z,954.08
2016-08-20T07:17:19.190Z,954.10
2016-08-20T07:19:32.097Z,954.12
2016-08-20T07:21:26.074Z,954.13
2016-08-20T07:22:29.223Z,954.13
2016-08-20T07:24:32.119Z,954.18
2016-08-20T07:26:28.997Z,954.14
2016-08-20T07:27:35.758Z,954.19
2016-08-20T07:28:13.448Z,954.24
2016-08-20T07:29:22.835Z,954.19
2016-08-20T07:30:33.013Z,954.19
2016-08-20T07:33:19.763Z,954.18
2016-08-20T07:34:17.418Z,954.19
2016-08-20T07:35:11.972Z,954.15
2016-08-20T07:36:13.152Z,954.16
2016-08-20T07:37:13.649Z,954.10
2016-08-20T07:38:17.000Z,954.10
2016-08-20T07:39:18.280Z,954.08
2016-08-20T07:40:12.393Z,954.05
2016-08-20T07:41:13.173Z,954.09
2016-08-20T07:42:17.510Z,954.08
2016-08-20T07:43:12.178Z,954.03
2016-08-20T07:44:22.608Z,954.09
2016-08-20T07:45:22.415Z,954.07
2016-08-20T07:46:18.562Z,954.05
2016-08-20T07:47:25.342Z,954.03
2016-08-20T07:49:17.718Z,954.02
2016-08-20T07:50:16.296Z,954.01
2016-08-20T07:51:17.657Z,954.02
2016-08-20T07:52:15.657Z,953.98
2016-08-20T07:53:27.040Z,954.00
2016-08-20T07:54:33.280Z,953.98
2016-08-20T07:55:26.928Z,953.98
2016-08-20T07:56:18.769Z,953.94
2016-08-20T07:57:17.367Z,953.96
2016-08-20T07:58:22.937Z,953.95
2016-08-20T07:59:23.739Z,953.95
2016-08-20T08:01:28.451Z,953.96
2016-08-20T08:02:32.116Z,953.96
2016-08-20T08:03:32.315Z,953.94
2016-08-20T08:05:32.127Z,953.90
2016-08-20T08:06:12.803Z,953.92
2016-08-20T08:07:18.209Z,953.91
2016-08-20T08:08:19.503Z,953.92
2016-08-20T08:09:18.542Z,953.90
2016-08-20T08:10:13.076Z,953.94
2016-08-20T08:11:17.736Z,953.92
2016-08-20T08:12:18.229Z,954.02
2016-08-20T08:13:31.499Z,954.00
2016-08-20T08:15:15.865Z,953.97
2016-08-20T08:16:22.828Z,953.96
2016-08-20T08:17:31.980Z,953.97
2016-08-20T08:18:32.179Z,953.98
2016-08-20T08:20:30.343Z,953.94
2016-08-20T08:21:17.495Z,953.94
2016-08-20T08:23:19.219Z,953.96
2016-08-20T08:24:13.026Z,953.95
2016-08-20T08:25:27.640Z,953.95
2016-08-20T08:26:13.285Z,953.95
2016-08-20T08:27:30.628Z,953.94
2016-08-20T08:28:17.311Z,953.93
2016-08-20T08:29:15.660Z,953.90
2016-08-20T08:31:17.239Z,953.90
2016-08-20T08:32:19.532Z,953.94
2016-08-20T08:35:29.258Z,953.92
2016-08-20T08:36:10.417Z,953.97
2016-08-20T08:37:35.060Z,953.95
2016-08-20T08:38:19.555Z,953.96
2016-08-20T08:39:18.115Z,953.95
2016-08-20T08:40:26.105Z,954.01
2016-08-20T08:42:26.458Z,953.96
2016-08-20T08:43:34.176Z,953.89
2016-08-20T08:44:23.112Z,953.92
2016-08-20T08:45:31.176Z,953.92
2016-08-20T08:46:34.558Z,953.96
2016-08-20T08:47:31.341Z,953.94
2016-08-20T08:48:17.780Z,953.93
2016-08-20T08:49:17.257Z,953.95
2016-08-20T08:50:24.398Z,953.93
2016-08-20T08:51:17.968Z,953.94
2016-08-20T08:52:34.665Z,953.92
2016-08-20T08:53:18.597Z,953.97
2016-08-20T08:54:17.805Z,953.98
2016-08-20T08:55:18.551Z,953.97
2016-08-20T08:56:22.606Z,953.99
2016-08-20T08:57:32.829Z,953.97
2016-08-20T08:58:29.033Z,953.94
2016-08-20T08:59:23.570Z,953.93
2016-08-20T09:00:18.357Z,953.90
2016-08-20T09:02:17.562Z,953.89
2016-08-20T09:03:33.316Z,953.83
2016-08-20T09:04:16.699Z,953.89
2016-08-20T09:05:18.594Z,953.85
2016-08-20T09:06:12.121Z,953.88
2016-08-20T09:07:17.416Z,953.88
2016-08-20T09:08:17.728Z,953.92
2016-08-20T09:09:32.918Z,953.90
2016-08-20T09:10:31.238Z,953.92
2016-08-20T09:11:31.489Z,953.93
2016-08-20T09:12:18.544Z,953.95
2016-08-20T09:13:26.915Z,953.94
2016-08-20T09:15:32.316Z,953.87
2016-08-20T09:16:33.475Z,953.89
2016-08-20T09:17:18.475Z,953.86
2016-08-20T09:18:31.687Z,953.85
2016-08-20T09:19:31.976Z,953.91
2016-08-20T09:20:22.864Z,953.91
2016-08-20T09:21:26.534Z,953.85
2016-08-20T09:22:18.994Z,953.85
2016-08-20T09:23:31.739Z,953.85
2016-08-20T09:24:18.179Z,953.82
2016-08-20T09:25:17.342Z,953.83
2016-08-20T09:26:18.644Z,953.81
2016-08-20T09:27:19.184Z,953.85
2016-08-20T09:28:34.409Z,953.84
2016-08-20T09:29:28.951Z,953.76
2016-08-20T09:30:31.611Z,953.84
2016-08-20T09:31:36.065Z,953.81
2016-08-20T09:33:30.547Z,953.81
2016-08-20T09:34:18.166Z,953.84
2016-08-20T09:35:27.476Z,953.86
2016-08-20T09:37:29.933Z,953.85
2016-08-20T09:38:32.011Z,953.84
2016-08-20T09:39:17.600Z,953.81
2016-08-20T09:40:33.005Z,953.85
2016-08-20T09:41:23.894Z,953.83
2016-08-20T09:42:12.546Z,953.82
2016-08-20T09:43:22.758Z,953.83
2016-08-20T09:44:19.725Z,953.87
2016-08-20T09:45:32.134Z,953.87
2016-08-20T09:46:19.274Z,953.84
2016-08-20T09:47:10.685Z,953.85
2016-08-20T09:48:17.588Z,953.86
2016-08-20T09:49:17.188Z,953.87
2016-08-20T09:50:19.090Z,953.85
2016-08-20T09:51:26.058Z,953.86
2016-08-20T09:52:31.708Z,953.78
2016-08-20T09:53:17.994Z,953.82
2016-08-20T09:54:19.693Z,953.82
2016-08-20T09:55:17.602Z,953.81
2016-08-20T09:56:18.265Z,953.82
2016-08-20T10:00:17.358Z,953.73
2016-08-20T10:02:17.709Z,953.74
2016-08-20T10:03:29.529Z,953.77
2016-08-20T10:04:31.700Z,953.79
2016-08-20T10:06:31.547Z,953.77
2016-08-20T10:07:17.813Z,953.78
2016-08-20T10:08:18.995Z,953.74
2016-08-20T10:09:32.254Z,953.73
2016-08-20T10:11:21.114Z,953.72
2016-08-20T10:12:30.293Z,953.73
2016-08-20T10:13:19.574Z,953.76
2016-08-20T10:14:31.834Z,953.75
2016-08-20T10:15:31.994Z,953.74
2016-08-20T10:16:13.671Z,953.76
2016-08-20T10:17:17.934Z,953.73
2016-08-20T10:18:32.170Z,953.74
2016-08-20T10:19:32.358Z,953.73
2016-08-20T10:20:17.489Z,953.71
2016-08-20T10:21:31.766Z,953.69
2016-08-20T10:22:19.734Z,953.63
2016-08-20T10:23:31.987Z,953.65
2016-08-20T10:24:30.048Z,953.61
2016-08-20T10:25:27.499Z,953.63
2016-08-20T10:26:25.788Z,953.55
2016-08-20T10:28:30.228Z,953.61
2016-08-20T10:29:16.731Z,953.53
2016-08-20T10:30:19.359Z,953.53
2016-08-20T10:31:18.265Z,953.53
2016-08-20T10:32:16.729Z,953.55
2016-08-20T10:33:18.126Z,953.57
2016-08-20T10:34:18.352Z,953.56
2016-08-20T10:35:22.945Z,953.60
2016-08-20T10:37:17.745Z,953.54
2016-08-20T10:39:17.452Z,953.52
2016-08-20T10:40:29.978Z,953.52
2016-08-20T10:41:18.597Z,953.47
2016-08-20T10:42:17.843Z,953.46
2016-08-20T10:43:20.437Z,953.45
2016-08-20T10:44:24.612Z,953.47
2016-08-20T10:45:18.041Z,953.42
2016-08-20T10:46:42.878Z,953.40
2016-08-20T10:47:27.412Z,953.43
2016-08-20T10:48:23.082Z,953.37
2016-08-20T10:49:18.751Z,953.39
2016-08-20T10:50:25.682Z,953.37
2016-08-20T10:51:20.014Z,953.38
2016-08-20T10:52:24.436Z,953.36
2016-08-20T10:53:17.793Z,953.40
2016-08-20T10:54:18.587Z,953.43
2016-08-20T10:55:31.506Z,953.41
2016-08-20T10:56:11.755Z,953.44
2016-08-20T10:57:16.922Z,953.48
2016-08-20T10:58:34.414Z,953.49
2016-08-20T10:59:23.292Z,953.53
2016-08-20T11:00:33.872Z,953.52
2016-08-20T11:02:24.256Z,953.54
2016-08-20T11:03:17.921Z,953.53
2016-08-20T11:04:12.725Z,953.59
2016-08-20T11:05:31.649Z,953.58
2016-08-20T11:07:12.528Z,953.67
2016-08-20T11:08:17.526Z,953.61
2016-08-20T11:09:17.027Z,953.64
2016-08-20T11:10:18.549Z,953.66
2016-08-20T11:11:23.887Z,953.63
2016-08-20T11:12:20.099Z,953.69
2016-08-20T11:13:12.528Z,953.68
2016-08-20T11:14:09.569Z,953.70
2016-08-20T11:15:14.183Z,953.68
2016-08-20T11:16:18.006Z,953.70
2016-08-20T11:17:23.190Z,953.67
2016-08-20T11:19:17.198Z,953.72
2016-08-20T11:20:18.818Z,953.68
2016-08-20T11:22:30.768Z,953.72
2016-08-20T11:23:18.403Z,953.69
2016-08-20T11:24:17.622Z,953.69
2016-08-20T11:25:31.400Z,953.72
2016-08-20T11:26:20.146Z,953.69
2016-08-20T11:27:18.534Z,953.76
2016-08-20T11:28:17.052Z,953.74
2016-08-20T11:29:18.473Z,953.72
2016-08-20T11:30:17.615Z,953.73
2016-08-20T11:31:18.713Z,953.66
2016-08-20T11:32:17.978Z,953.63
2016-08-20T11:33:18.175Z,953.60
2016-08-20T11:34:24.777Z,953.57
2016-08-20T11:35:22.971Z,953.56
2016-08-20T11:36:12.686Z,953.54
2016-08-20T11:37:18.826Z,953.57
2016-08-20T11:38:18.006Z,953.57
2016-08-20T11:39:27.849Z,953.58
2016-08-20T11:40:18.530Z,953.57
2016-08-20T11:42:23.125Z,953.58
2016-08-20T11:43:34.350Z,953.55
2016-08-20T11:44:16.839Z,953.59
2016-08-20T11:45:19.125Z,953.58
2016-08-20T11:46:19.456Z,953.57
2016-08-20T11:47:17.658Z,953.59
2016-08-20T11:48:18.638Z,953.58
2016-08-20T11:49:17.807Z,953.56
2016-08-20T11:50:17.168Z,953.57
2016-08-20T11:51:13.312Z,953.56
2016-08-20T11:52:12.033Z,953.55
2016-08-20T11:53:18.778Z,953.52
2016-08-20T11:54:17.943Z,953.52
2016-08-20T11:55:40.485Z,953.54
2016-08-20T11:56:12.057Z,953.56
2016-08-20T11:57:18.702Z,953.54
2016-08-20T11:58:20.038Z,953.56
2016-08-20T11:59:19.271Z,953.51
2016-08-20T12:00:18.986Z,953.48
2016-08-20T12:01:20.188Z,953.48
2016-08-20T12:02:22.750Z,953.49
2016-08-20T12:03:17.936Z,953.49
2016-08-20T12:04:18.541Z,953.51
2016-08-20T12:05:18.829Z,953.54
2016-08-20T12:06:19.728Z,953.56
2016-08-20T12:07:17.592Z,953.47
2016-08-20T12:08:25.971Z,953.49
2016-08-20T12:09:18.111Z,953.49
2016-08-20T12:10:18.266Z,953.46
2016-08-20T12:11:21.014Z,953.44
2016-08-20T12:12:18.705Z,953.45
2016-08-20T12:13:19.914Z,953.42
2016-08-20T12:14:18.261Z,953.40
2016-08-20T12:15:11.179Z,953.40
2016-08-20T12:16:19.203Z,953.35
2016-08-20T12:17:16.477Z,953.35
2016-08-20T12:18:17.771Z,953.31
2016-08-20T12:19:17.990Z,953.32
2016-08-20T12:20:18.147Z,953.32
2016-08-20T12:21:17.310Z,953.29
2016-08-20T12:22:18.088Z,953.33
2016-08-20T12:23:18.042Z,953.32
2016-08-20T12:24:23.129Z,953.30
2016-08-20T12:25:18.275Z,953.29
2016-08-20T12:26:32.867Z,953.30
2016-08-20T12:27:17.980Z,953.34
2016-08-20T12:28:30.817Z,953.37
2016-08-20T12:29:17.597Z,953.36
2016-08-20T12:30:18.239Z,953.40
2016-08-20T12:31:30.329Z,953.38
2016-08-20T12:32:33.009Z,953.41
2016-08-20T12:33:17.503Z,953.36
2016-08-20T12:34:17.391Z,953.38
2016-08-20T12:35:18.574Z,953.37
2016-08-20T12:36:17.742Z,953.34
2016-08-20T12:37:17.781Z,953.34
2016-08-20T12:38:16.281Z,953.31
2016-08-20T12:39:18.675Z,953.33
2016-08-20T12:40:15.333Z,953.36
2016-08-20T12:41:12.143Z,953.40
2016-08-20T12:42:18.531Z,953.39
2016-08-20T12:43:18.637Z,953.34
2016-08-20T12:44:18.344Z,953.34
2016-08-20T12:45:43.053Z,953.36
2016-08-20T12:46:26.569Z,953.39
2016-08-20T12:47:25.381Z,953.39
2016-08-20T12:48:18.227Z,953.36
2016-08-20T12:49:28.493Z,953.42
2016-08-20T12:50:17.145Z,953.36
2016-08-20T12:51:15.775Z,953.39
2016-08-20T12:52:16.998Z,953.35
2016-08-20T12:53:20.666Z,953.36
2016-08-20T12:54:12.265Z,953.37
2016-08-20T12:55:14.266Z,953.41
2016-08-20T12:56:18.082Z,953.39
2016-08-20T12:57:18.472Z,953.42
2016-08-20T12:58:17.352Z,953.40
2016-08-20T12:59:27.519Z,953.38
2016-08-20T13:00:11.771Z,953.40
2016-08-20T13:01:29.551Z,953.36
2016-08-20T13:02:17.923Z,953.36
2016-08-20T13:03:12.733Z,953.39
2016-08-20T13:04:25.805Z,953.35
2016-08-20T13:05:17.153Z,953.39
2016-08-20T13:06:17.774Z,953.33
2016-08-20T13:07:17.427Z,953.31
2016-08-20T13:08:17.923Z,953.35
2016-08-20T13:09:13.240Z,953.30
2016-08-20T13:10:11.568Z,953.29
2016-08-20T13:11:12.149Z,953.30
2016-08-20T13:12:20.470Z,953.33
2016-08-20T13:13:18.028Z,953.31
2016-08-20T13:14:13.890Z,953.36
2016-08-20T13:15:17.464Z,953.33
2016-08-20T13:16:17.050Z,953.36
2016-08-20T13:17:17.480Z,953.42
2016-08-20T13:18:30.797Z,953.42
2016-08-20T13:19:12.744Z,953.43
2016-08-20T13:20:33.952Z,953.39
2016-08-20T13:21:12.333Z,953.43
2016-08-20T13:22:20.216Z,953.47
2016-08-20T13:23:23.133Z,953.46
2016-08-20T13:24:24.131Z,953.45
2016-08-20T13:25:25.183Z,953.42
2016-08-20T13:26:18.690Z,953.47
2016-08-20T13:27:25.761Z,953.45
2016-08-20T13:28:33.017Z,953.42
2016-08-20T13:29:32.247Z,953.47
2016-08-20T13:30:17.750Z,953.42
2016-08-20T13:31:17.940Z,953.45
2016-08-20T13:32:18.869Z,953.40
2016-08-20T13:33:17.851Z,953.38
2016-08-20T13:34:19.271Z,953.44
2016-08-20T13:35:25.225Z,953.43
2016-08-20T13:36:16.762Z,953.43
2016-08-20T13:37:17.716Z,953.51
2016-08-20T13:38:19.908Z,953.46
2016-08-20T13:39:18.529Z,953.56
2016-08-20T13:40:12.686Z,953.55
2016-08-20T13:41:12.838Z,953.53
2016-08-20T13:42:18.403Z,953.53
2016-08-20T13:43:17.169Z,953.57